createdAt,value
2022-09-04T00:00:08.681Z,19.00
2022-09-04T00:03:15.649Z,18.41
2022-09-04T00:05:52.598Z,18.93
2022-09-04T00:08:42.265Z,18.64
2022-09-04T00:11:21.266Z,18.43
2022-09-04T00:13:58.329Z,17.98
2022-09-04T00:16:39.309Z,18.64
2022-09-04T00:19:17.104Z,18.24
2022-09-04T00:21:54.161Z,18.11
2022-09-04T00:24:28.217Z,18.22
2022-09-04T00:27:05.439Z,18.37
2022-09-04T00:29:48.466Z,18.39
2022-09-04T00:32:34.750Z,18.41
2022-09-04T00:35:14.209Z,18.06
2022-09-04T00:37:49.359Z,18.39
2022-09-04T00:40:27.594Z,17.99
2022-09-04T00:43:35.980Z,17.88
2022-09-04T00:46:52.040Z,17.84
2022-09-04T00:49:57.382Z,17.79
2022-09-04T00:52:58.330Z,17.83
2022-09-04T00:55:50.714Z,17.93
2022-09-04T00:58:51.834Z,17.68
2022-09-04T01:01:25.984Z,18.01
2022-09-04T01:04:23.457Z,17.71
2022-09-04T01:07:14.638Z,17.82
2022-09-04T01:10:20.438Z,17.83
2022-09-04T01:13:02.113Z,18.46
2022-09-04T01:15:41.790Z,17.95
2022-09-04T01:18:19.863Z,17.68
2022-09-04T01:21:11.837Z,17.80
2022-09-04T01:24:18.882Z,18.65
2022-09-04T01:26:57.307Z,17.59
2022-09-04T01:29:39.927Z,17.89
2022-09-04T01:32:19.515Z,18.04
2022-09-04T01:35:02.753Z,18.19
2022-09-04T01:37:44.431Z,18.34
2022-09-04T01:40:42.004Z,17.97
2022-09-04T01:43:17.550Z,17.79
2022-09-04T01:46:35.952Z,17.83
2022-09-04T01:49:14.785Z,17.59
2022-09-04T01:51:55.334Z,17.60
2022-09-04T01:54:51.809Z,17.54
2022-09-04T01:57:38.475Z,17.55
2022-09-04T02:00:13.806Z,18.22
2022-09-04T02:02:56.652Z,17.77
2022-09-04T02:05:37.726Z,17.63
2022-09-04T02:08:27.589Z,17.50
2022-09-04T02:11:07.209Z,17.75
2022-09-04T02:13:53.731Z,17.62
2022-09-04T02:16:35.246Z,17.85
2022-09-04T02:19:16.806Z,18.02
2022-09-04T02:21:56.182Z,17.46
2022-09-04T02:24:40.196Z,18.08
2022-09-04T02:27:20.644Z,17.59
2022-09-04T02:29:59.634Z,17.66
2022-09-04T02:32:38.845Z,18.21
2022-09-04T02:35:18.025Z,18.28
2022-09-04T02:38:08.723Z,18.10
2022-09-04T02:40:51.109Z,17.75
2022-09-04T02:43:47.346Z,17.73
2022-09-04T02:46:27.336Z,17.65
2022-09-04T02:49:13.237Z,17.38
2022-09-04T02:52:01.935Z,17.43
2022-09-04T02:54:57.693Z,17.24
2022-09-04T02:57:41.392Z,17.31
2022-09-04T03:00:15.430Z,17.30
2022-09-04T03:02:56.595Z,17.56
2022-09-04T03:05:32.096Z,17.80
2022-09-04T03:08:08.934Z,18.06
2022-09-04T03:10:45.948Z,17.98
2022-09-04T03:13:24.246Z,17.09
2022-09-04T03:15:58.283Z,17.61
2022-09-04T03:18:35.204Z,17.29
2022-09-04T03:21:14.638Z,17.31
2022-09-04T03:23:51.511Z,17.90
2022-09-04T03:26:27.757Z,17.07
2022-09-04T03:29:10.168Z,17.04
2022-09-04T03:31:51.038Z,17.24
2022-09-04T03:34:43.404Z,17.20
2022-09-04T03:37:42.021Z,17.17
2022-09-04T03:40:25.880Z,16.97
2022-09-04T03:43:21.888Z,17.30
2022-09-04T03:46:02.101Z,16.91
2022-09-04T03:48:57.993Z,16.51
2022-09-04T03:51:40.005Z,16.93
2022-09-04T03:54:33.465Z,16.76
2022-09-04T03:57:25.090Z,16.86
2022-09-04T04:00:08.317Z,17.30
2022-09-04T04:03:00.755Z,16.96
2022-09-04T04:05:59.842Z,16.29
2022-09-04T04:08:51.140Z,16.35
2022-09-04T04:12:10.600Z,16.45
2022-09-04T04:15:04.212Z,16.35
2022-09-04T04:18:05.340Z,16.91
2022-09-04T04:21:00.503Z,16.78
2022-09-04T04:24:21.244Z,16.59
2022-09-04T04:27:09.703Z,16.30
2022-09-04T04:30:05.793Z,16.56
2022-09-04T04:32:51.204Z,16.24
2022-09-04T04:35:30.274Z,16.52
2022-09-04T04:38:27.549Z,16.89
2022-09-04T04:41:30.833Z,17.19
2022-09-04T04:44:14.169Z,17.05
2022-09-04T04:47:01.910Z,17.36
2022-09-04T04:49:57.720Z,16.86
2022-09-04T04:52:45.650Z,16.86
2022-09-04T04:55:31.299Z,16.83
2022-09-04T04:58:29.976Z,16.66
2022-09-04T05:01:15.617Z,17.06
2022-09-04T05:04:07.716Z,16.99
2022-09-04T05:06:43.461Z,16.57
2022-09-04T05:09:26.740Z,16.53
2022-09-04T05:12:04.528Z,16.66
2022-09-04T05:14:47.383Z,16.44
2022-09-04T05:17:38.625Z,16.21
2022-09-04T05:20:27.370Z,16.62
2022-09-04T05:23:14.422Z,16.59
2022-09-04T05:25:53.968Z,16.56
2022-09-04T05:28:36.293Z,16.82
2022-09-04T05:31:18.114Z,16.07
2022-09-04T05:34:00.245Z,16.48
2022-09-04T05:36:42.237Z,16.46
2022-09-04T05:39:25.817Z,16.53
2022-09-04T05:42:11.756Z,17.15
2022-09-04T05:44:58.256Z,16.68
2022-09-04T05:47:43.063Z,16.81
2022-09-04T05:50:42.590Z,16.57
2022-09-04T05:53:43.638Z,16.05
2022-09-04T05:56:51.487Z,16.72
2022-09-04T05:59:46.064Z,16.56
2022-09-04T06:02:42.412Z,16.95
2022-09-04T06:05:51.839Z,17.46
2022-09-04T06:08:41.570Z,16.89
2022-09-04T06:11:42.052Z,17.45
2022-09-04T06:14:37.883Z,16.54
2022-09-04T06:17:29.467Z,17.19
2022-09-04T06:20:20.007Z,17.17
2022-09-04T06:23:32.975Z,17.06
2022-09-04T06:26:36.880Z,16.93
2022-09-04T06:29:47.818Z,16.81
2022-09-04T06:33:08.114Z,17.53
2022-09-04T06:36:09.073Z,17.31
2022-09-04T06:38:54.462Z,17.37
2022-09-04T06:41:48.671Z,18.44
2022-09-04T06:44:34.639Z,17.85
2022-09-04T06:47:23.042Z,17.96
2022-09-04T06:50:20.072Z,18.05
2022-09-04T06:53:09.165Z,18.59
2022-09-04T06:55:58.166Z,17.82
2022-09-04T06:59:08.902Z,17.91
2022-09-04T07:01:52.344Z,17.76
2022-09-04T07:04:44.232Z,17.85
2022-09-04T07:07:23.609Z,17.89
2022-09-04T07:10:01.707Z,17.68
2022-09-04T07:13:13.216Z,17.46
2022-09-04T07:15:59.103Z,18.20
2022-09-04T07:19:11.577Z,18.46
2022-09-04T07:21:54.819Z,18.73
2022-09-04T07:24:58.108Z,18.08
2022-09-04T07:27:43.255Z,18.06
2022-09-04T07:30:16.207Z,18.74
2022-09-04T07:32:54.419Z,18.37
2022-09-04T07:35:34.400Z,18.16
2022-09-04T07:38:20.247Z,17.92
2022-09-04T07:40:54.260Z,18.19
2022-09-04T07:43:43.573Z,19.15
2022-09-04T07:46:22.327Z,18.46
2022-09-04T07:48:57.996Z,18.49
2022-09-04T07:51:37.818Z,18.95
2022-09-04T07:54:38.617Z,19.67
2022-09-04T07:57:56.622Z,18.59
2022-09-04T08:00:25.488Z,18.72
2022-09-04T08:03:33.715Z,19.56
2022-09-04T08:06:15.278Z,19.20
2022-09-04T08:09:09.544Z,18.77
2022-09-04T08:12:05.966Z,18.78
2022-09-04T08:14:55.724Z,18.93
2022-09-04T08:17:51.950Z,19.17
2022-09-04T08:20:39.693Z,19.90
2022-09-04T08:23:42.881Z,19.52
2022-09-04T08:26:24.222Z,19.85
2022-09-04T08:29:21.248Z,19.98
2022-09-04T08:32:08.762Z,19.65
2022-09-04T08:34:57.719Z,20.21
2022-09-04T08:37:33.702Z,20.54
2022-09-04T08:40:46.561Z,21.26
2022-09-04T08:43:39.407Z,21.41
2022-09-04T08:46:38.376Z,21.43
2022-09-04T08:49:56.312Z,21.62
2022-09-04T08:53:11.298Z,21.91
2022-09-04T08:56:00.938Z,21.58
2022-09-04T08:59:23.411Z,20.87
2022-09-04T09:02:38.198Z,21.19
2022-09-04T09:05:59.638Z,20.84
2022-09-04T09:09:23.399Z,20.51
2022-09-04T09:12:42.050Z,21.53
2022-09-04T09:15:39.918Z,21.86
2022-09-04T09:18:47.399Z,21.33
2022-09-04T09:21:39.751Z,21.45
2022-09-04T09:24:43.355Z,20.93
2022-09-04T09:27:56.972Z,21.82
2022-09-04T09:30:26.251Z,22.50
2022-09-04T09:33:54.614Z,21.79
2022-09-04T09:37:03.286Z,22.29
2022-09-04T09:40:05.570Z,22.47
2022-09-04T09:43:11.257Z,22.18
2022-09-04T09:46:10.259Z,22.40
2022-09-04T09:49:27.269Z,22.53
2022-09-04T09:53:01.288Z,21.72
2022-09-04T09:56:15.043Z,21.47
2022-09-04T09:59:45.905Z,22.64
2022-09-04T10:03:04.077Z,21.63
2022-09-04T10:06:22.839Z,21.89
2022-09-04T10:09:30.000Z,22.09
2022-09-04T10:13:00.673Z,21.95
2022-09-04T10:16:45.849Z,22.88
2022-09-04T10:19:51.416Z,22.61
2022-09-04T10:23:17.386Z,22.09
2022-09-04T10:26:26.997Z,22.79
2022-09-04T10:29:50.584Z,22.68
2022-09-04T10:32:51.209Z,22.71
2022-09-04T10:35:32.476Z,22.61
2022-09-04T10:38:37.324Z,22.24
2022-09-04T10:42:05.549Z,22.69
2022-09-04T10:45:09.118Z,23.10
2022-09-04T10:48:42.898Z,23.25
2022-09-04T10:52:00.120Z,23.28
2022-09-04T10:55:02.822Z,23.96
2022-09-04T10:58:10.589Z,23.45
2022-09-04T11:01:04.011Z,23.97
2022-09-04T11:04:13.945Z,24.23
2022-09-04T11:07:18.754Z,23.81
2022-09-04T11:10:09.502Z,23.98
2022-09-04T11:13:10.039Z,23.14
2022-09-04T11:16:25.343Z,23.07
2022-09-04T11:19:32.307Z,23.10
2022-09-04T11:22:55.196Z,22.40
2022-09-04T11:26:06.764Z,22.65
2022-09-04T11:29:12.378Z,22.93
2022-09-04T11:32:12.255Z,23.82
2022-09-04T11:35:29.734Z,24.16
2022-09-04T11:38:09.448Z,23.76
2022-09-04T11:41:32.709Z,23.83
2022-09-04T11:44:27.011Z,23.52
2022-09-04T11:47:54.491Z,23.62
2022-09-04T11:50:46.201Z,23.84
2022-09-04T11:53:43.789Z,23.77
2022-09-04T11:56:55.448Z,24.02
2022-09-04T11:59:47.348Z,23.65
2022-09-04T12:03:13.977Z,23.72
2022-09-04T12:06:08.316Z,24.05
2022-09-04T12:09:11.836Z,23.18
2022-09-04T12:12:25.424Z,23.79
2022-09-04T12:15:16.692Z,23.22
2022-09-04T12:18:33.584Z,23.53
2022-09-04T12:21:43.412Z,23.35
2022-09-04T12:24:42.740Z,24.02
2022-09-04T12:27:53.520Z,23.91
2022-09-04T12:30:23.666Z,23.89
2022-09-04T12:33:46.301Z,24.15
2022-09-04T12:36:46.897Z,24.75
2022-09-04T12:39:39.503Z,24.15
2022-09-04T12:42:17.817Z,24.57
2022-09-04T12:45:02.166Z,24.06
2022-09-04T12:47:49.154Z,24.50
2022-09-04T12:50:34.531Z,24.38
2022-09-04T12:53:37.121Z,24.53
2022-09-04T12:56:13.622Z,24.17
2022-09-04T12:59:06.867Z,24.51
2022-09-04T13:01:59.309Z,24.78
2022-09-04T13:04:41.207Z,24.81
2022-09-04T13:07:31.593Z,24.57
2022-09-04T13:10:21.091Z,24.95
2022-09-04T13:13:07.315Z,24.97
2022-09-04T13:15:54.843Z,24.05
2022-09-04T13:18:50.023Z,24.28
2022-09-04T13:21:40.014Z,24.95
2022-09-04T13:24:35.767Z,25.06
2022-09-04T13:27:26.564Z,24.97
2022-09-04T13:30:08.020Z,24.91
2022-09-04T13:32:56.424Z,25.43
2022-09-04T13:35:44.488Z,25.57
2022-09-04T13:38:40.936Z,25.01
2022-09-04T13:42:06.271Z,24.52
2022-09-04T13:44:59.817Z,24.94
2022-09-04T13:47:40.299Z,25.12
2022-09-04T13:50:17.304Z,25.04
2022-09-04T13:52:54.413Z,25.21
2022-09-04T13:55:27.349Z,25.55
2022-09-04T13:58:10.867Z,25.20
2022-09-04T14:00:47.290Z,24.74
2022-09-04T14:03:31.792Z,24.28
2022-09-04T14:06:01.145Z,25.37
2022-09-04T14:08:31.419Z,25.74
2022-09-04T14:11:30.211Z,24.50
2022-09-04T14:14:45.826Z,24.81
2022-09-04T14:17:13.706Z,25.19
2022-09-04T14:19:57.634Z,24.83
2022-09-04T14:22:44.964Z,24.83
2022-09-04T14:25:22.693Z,25.21
2022-09-04T14:28:03.913Z,25.26
2022-09-04T14:30:45.519Z,25.17
2022-09-04T14:33:34.605Z,24.60
2022-09-04T14:36:18.504Z,25.03
2022-09-04T14:39:16.589Z,24.61
2022-09-04T14:42:12.348Z,24.70
2022-09-04T14:45:16.322Z,24.92
2022-09-04T14:47:54.862Z,25.16
2022-09-04T14:50:28.505Z,25.23
2022-09-04T14:53:00.814Z,25.19
2022-09-04T14:55:32.008Z,24.92
2022-09-04T14:58:10.137Z,25.03
2022-09-04T15:01:01.332Z,25.26
2022-09-04T15:03:37.028Z,25.45
2022-09-04T15:06:16.264Z,24.79
2022-09-04T15:08:46.394Z,24.84
2022-09-04T15:11:31.843Z,24.64
2022-09-04T15:14:07.441Z,24.50
2022-09-04T15:16:49.840Z,24.37
2022-09-04T15:19:47.625Z,24.32
2022-09-04T15:22:25.244Z,24.50
2022-09-04T15:25:02.062Z,24.91
2022-09-04T15:27:44.557Z,24.32
2022-09-04T15:30:21.634Z,24.32
2022-09-04T15:32:51.808Z,24.23
2022-09-04T15:35:32.799Z,24.74
2022-09-04T15:38:11.252Z,24.68
2022-09-04T15:41:05.856Z,24.11
2022-09-04T15:43:42.693Z,23.95
2022-09-04T15:46:22.968Z,23.82
2022-09-04T15:49:13.786Z,24.34
2022-09-04T15:51:51.638Z,24.62
2022-09-04T15:54:51.157Z,23.86
2022-09-04T15:57:26.165Z,24.28
2022-09-04T16:00:02.247Z,24.03
2022-09-04T16:02:43.605Z,24.20
2022-09-04T16:05:23.621Z,24.68
2022-09-04T16:08:04.121Z,24.21
2022-09-04T16:10:50.075Z,25.02
2022-09-04T16:13:41.627Z,24.36
2022-09-04T16:16:18.320Z,25.01
2022-09-04T16:19:02.474Z,23.82
2022-09-04T16:21:45.457Z,24.09
2022-09-04T16:24:20.661Z,24.36
2022-09-04T16:26:54.429Z,24.08
2022-09-04T16:29:36.327Z,23.79
2022-09-04T16:32:12.202Z,23.82
2022-09-04T16:34:49.849Z,23.93
2022-09-04T16:37:28.450Z,23.86
2022-09-04T16:40:14.626Z,24.06
2022-09-04T16:42:51.007Z,23.83
2022-09-04T16:45:26.229Z,24.24
2022-09-04T16:48:12.703Z,24.31
2022-09-04T16:51:29.217Z,23.97
2022-09-04T16:54:04.117Z,24.13
2022-09-04T16:56:40.510Z,24.07
2022-09-04T16:59:25.595Z,24.27
2022-09-04T17:02:02.443Z,23.85
2022-09-04T17:04:40.336Z,23.90
2022-09-04T17:07:21.423Z,24.47
2022-09-04T17:10:01.690Z,23.83
2022-09-04T17:12:52.582Z,23.73
2022-09-04T17:15:33.670Z,23.87
2022-09-04T17:18:09.581Z,24.07
2022-09-04T17:22:08.496Z,23.96
2022-09-04T17:28:58.372Z,23.69
2022-09-04T17:29:00.321Z,24.01
2022-09-04T17:29:41.717Z,23.65
2022-09-04T17:33:04.166Z,23.53
2022-09-04T17:40:38.421Z,23.72
2022-09-04T17:40:47.149Z,23.80
2022-09-04T17:41:39.556Z,23.39
2022-09-04T17:44:33.921Z,24.02
2022-09-04T17:47:26.326Z,23.64
2022-09-04T17:49:55.796Z,23.53
2022-09-04T17:52:28.245Z,23.61
2022-09-04T17:55:06.134Z,23.58
2022-09-04T17:57:57.336Z,23.59
2022-09-04T18:00:34.342Z,23.19
2022-09-04T18:03:13.736Z,23.21
2022-09-04T18:05:53.608Z,23.16
2022-09-04T18:08:32.491Z,23.01
2022-09-04T18:11:12.101Z,23.09
2022-09-04T18:13:53.309Z,23.04
2022-09-04T18:17:12.252Z,23.01
2022-09-04T18:19:46.288Z,22.86
2022-09-04T18:22:33.626Z,23.00
2022-09-04T18:25:16.382Z,22.76
2022-09-04T18:28:06.300Z,22.83
2022-09-04T18:37:06.944Z,22.98
2022-09-04T18:37:20.137Z,22.78
2022-09-04T18:37:23.764Z,22.42
2022-09-04T18:40:03.801Z,23.10
2022-09-04T18:50:20.386Z,22.49
2022-09-04T18:50:24.918Z,22.85
2022-09-04T18:50:37.221Z,22.72
2022-09-04T18:51:31.400Z,22.66
2022-09-04T18:54:11.909Z,22.19
2022-09-04T18:56:45.356Z,22.11
2022-09-04T18:59:20.385Z,22.15
2022-09-04T19:02:00.788Z,22.31
2022-09-04T19:04:52.602Z,22.52
2022-09-04T19:07:32.438Z,22.47
2022-09-04T19:10:17.698Z,22.42
2022-09-04T19:13:01.841Z,22.46
2022-09-04T19:15:45.717Z,22.35
2022-09-04T19:18:27.348Z,22.26
2022-09-04T19:21:23.355Z,22.09
2022-09-04T19:24:01.072Z,22.47
2022-09-04T19:26:42.207Z,22.58
2022-09-04T19:29:19.396Z,21.71
2022-09-04T19:31:58.677Z,21.71
2022-09-04T19:34:39.733Z,21.71
2022-09-04T19:38:15.411Z,22.18
2022-09-04T19:46:05.698Z,22.14
2022-09-04T19:46:17.279Z,21.91
2022-09-04T19:46:31.750Z,21.71
2022-09-04T19:53:19.181Z,21.69
2022-09-04T19:53:22.119Z,21.73
2022-09-04T19:55:25.009Z,21.65
2022-09-04T19:58:07.223Z,21.54
2022-09-04T20:00:44.494Z,21.46
2022-09-04T20:03:29.962Z,21.50
2022-09-04T20:06:09.273Z,21.69
2022-09-04T20:08:58.022Z,21.31
2022-09-04T20:11:35.934Z,21.83
2022-09-04T20:14:15.383Z,21.25
2022-09-04T20:17:00.904Z,21.29
2022-09-04T20:19:42.910Z,21.65
2022-09-04T20:22:29.384Z,21.73
2022-09-04T20:25:29.048Z,21.68
2022-09-04T20:28:15.227Z,21.45
2022-09-04T20:30:49.441Z,21.67
2022-09-04T20:33:24.688Z,21.51
2022-09-04T20:35:59.740Z,21.68
2022-09-04T20:38:42.028Z,21.88
2022-09-04T20:41:19.528Z,21.83
2022-09-04T20:44:03.430Z,21.36
2022-09-04T20:52:42.576Z,21.23
2022-09-04T20:52:43.478Z,21.57
2022-09-04T20:53:07.952Z,21.28
2022-09-04T20:55:52.174Z,21.02
2022-09-04T21:03:12.920Z,21.51
2022-09-04T21:03:26.281Z,21.51
2022-09-04T21:04:48.613Z,21.72
2022-09-04T21:07:29.556Z,21.31
2022-09-04T21:10:12.124Z,21.21
2022-09-04T21:12:47.177Z,21.12
2022-09-04T21:15:37.439Z,20.89
2022-09-04T21:18:31.285Z,21.03
2022-09-04T21:21:22.192Z,21.36
2022-09-04T21:24:42.920Z,21.42
2022-09-04T21:27:35.701Z,20.95
2022-09-04T21:30:10.025Z,21.52
2022-09-04T21:33:26.602Z,21.47
2022-09-04T21:36:26.731Z,21.29
2022-09-04T21:39:39.085Z,21.22
2022-09-04T21:42:47.437Z,21.49
2022-09-04T21:45:32.734Z,21.30
2022-09-04T21:48:24.304Z,21.46
2022-09-04T21:51:17.058Z,21.34
2022-09-04T21:54:37.766Z,21.25
2022-09-04T22:02:29.394Z,20.90
2022-09-04T22:02:36.343Z,21.12
2022-09-04T22:04:23.280Z,21.00
2022-09-04T22:10:06.681Z,20.92
2022-09-04T22:13:38.392Z,20.99
2022-09-04T22:13:46.417Z,20.44
2022-09-04T22:16:30.719Z,20.86
2022-09-04T22:19:23.454Z,20.90
2022-09-04T22:22:20.987Z,21.39
2022-09-04T22:25:17.003Z,21.15
2022-09-04T22:28:46.371Z,20.89
2022-09-04T22:32:02.950Z,20.57
2022-09-04T22:35:20.004Z,21.16
2022-09-04T22:38:26.571Z,21.18
2022-09-04T22:41:12.537Z,20.99
2022-09-04T22:43:47.853Z,20.54
2022-09-04T22:46:44.163Z,21.04
2022-09-04T22:49:48.827Z,20.52
2022-09-04T22:52:42.186Z,20.98
2022-09-04T22:56:08.387Z,20.54
2022-09-04T22:59:26.806Z,20.30
2022-09-04T23:03:07.256Z,20.26
2022-09-04T23:05:46.800Z,19.78
2022-09-04T23:13:44.395Z,19.66
2022-09-04T23:13:58.479Z,19.62
2022-09-04T23:15:10.165Z,20.02
2022-09-04T23:20:51.507Z,19.45
2022-09-04T23:26:39.235Z,19.93
2022-09-04T23:26:44.648Z,20.19
2022-09-04T23:27:46.857Z,20.31
2022-09-04T23:30:25.158Z,20.05
2022-09-04T23:33:42.458Z,19.83
2022-09-04T23:36:41.078Z,19.49
2022-09-04T23:40:05.903Z,19.48
2022-09-04T23:43:20.767Z,19.85
2022-09-04T23:46:31.296Z,19.55
2022-09-04T23:49:32.191Z,19.56
2022-09-04T23:52:13.465Z,19.49
2022-09-04T23:55:17.671Z,19.23
2022-09-04T23:58:21.785Z,19.82
